Time;durP1;ratioP1;P1;durP2;ratioP2;P2;SDS_P1;SDS_P2;PMS_P1;PMS_P2;Temp;Humidity;BMP_temperature;BMP_pressure;BME280_temperature;BME280_humidity;BME280_pressure;Samples;Min_cycle;Max_cycle;Signal;HPM_P1;HPM_P2
2021/09/19 00:02:11;;;;;;;1.30;1.00;;;;;;;11.93;78.13;97946.04;112499;1190;61273;-24
2021/09/19 00:04:39;;;;;;;2.40;1.40;;;;;;;11.83;78.08;97939.21;112501;1190;74201;-23
2021/09/19 00:07:08;;;;;;;2.00;1.10;;;;;;;11.51;78.80;97942.88;112511;1190;75384;-24
2021/09/19 00:09:37;;;;;;;2.20;1.00;;;;;;;11.23;79.42;97937.05;112545;1190;73981;-24
2021/09/19 00:12:06;;;;;;;1.50;0.70;;;;;;;11.05;79.86;97938.74;112536;1190;62391;-23
2021/09/19 00:14:36;;;;;;;1.30;0.80;;;;;;;11.48;79.04;97936.20;112534;1190;60895;-24
2021/09/19 00:17:05;;;;;;;4.20;0.90;;;;;;;11.95;76.94;97934.52;112526;1190;75185;-24
2021/09/19 00:19:37;;;;;;;4.30;0.90;;;;;;;11.97;76.73;97930.54;112518;1190;75623;-23
2021/09/19 00:22:05;;;;;;;2.10;1.20;;;;;;;11.72;77.17;97931.10;112509;1190;73003;-24
2021/09/19 00:24:33;;;;;;;1.50;0.80;;;;;;;11.42;78.02;97930.52;112499;1190;61498;-24
2021/09/19 00:27:17;;;;;;;1.10;0.80;;;;;;;11.21;78.66;97929.58;112560;1190;60803;-23
2021/09/19 00:30:06;;;;;;;1.20;0.90;;;;;;;11.71;77.85;97926.02;112513;1190;76302;-25
2021/09/19 00:32:35;;;;;;;1.50;0.90;;;;;;;12.11;75.89;97929.88;112530;1190;74727;-23
2021/09/19 00:35:05;;;;;;;3.00;0.90;;;;;;;12.05;75.84;97930.52;112432;1193;73016;-23
2021/09/19 00:37:33;;;;;;;2.90;0.90;;;;;;;11.80;76.49;97926.89;112475;1190;61463;-23
2021/09/19 00:40:02;;;;;;;2.30;1.00;;;;;;;11.54;77.14;97922.94;112531;1190;61804;-23
2021/09/19 00:42:30;;;;;;;1.70;1.10;;;;;;;11.29;77.85;97925.66;112549;1180;75233;-22
2021/09/19 00:45:09;;;;;;;1.00;0.60;;;;;;;11.09;79.04;97924.89;112525;1190;75367;-23
2021/09/19 00:47:38;;;;;;;2.30;0.80;;;;;;;11.58;78.47;97920.92;112326;1193;74011;-23
2021/09/19 00:50:10;;;;;;;1.70;0.90;;;;;;;11.96;76.70;97918.37;112458;1191;60805;-23
2021/09/19 00:52:39;;;;;;;1.80;0.90;;;;;;;11.88;76.28;97919.27;112433;1190;60789;-23
2021/09/19 00:55:09;;;;;;;1.00;0.70;;;;;;;11.72;76.79;97921.38;112361;1192;75110;-24
2021/09/19 00:57:44;;;;;;;1.50;1.00;;;;;;;11.44;77.30;97923.63;112557;1190;74885;-23
2021/09/19 01:00:20;;;;;;;3.10;1.00;;;;;;;11.13;78.98;97922.77;112344;1192;74038;-23
2021/09/19 01:02:49;;;;;;;1.30;0.80;;;;;;;10.95;79.62;97923.46;112203;1190;62292;-22
2021/09/19 01:05:18;;;;;;;1.40;0.80;;;;;;;11.49;78.58;97923.05;112573;1190;60828;-22
2021/09/19 01:07:47;;;;;;;2.30;0.90;;;;;;;11.98;76.21;97922.06;112550;1190;75268;-23
2021/09/19 01:10:21;;;;;;;1.50;0.80;;;;;;;11.87;76.35;97921.38;112453;1193;76177;-23
2021/09/19 01:13:09;;;;;;;1.90;1.00;;;;;;;11.66;77.19;97922.41;112234;1190;74277;-22
2021/09/19 01:15:39;;;;;;;2.60;1.30;;;;;;;11.41;77.82;97922.34;112427;1191;61398;-22
2021/09/19 01:18:17;;;;;;;1.50;0.90;;;;;;;11.08;78.87;97922.85;112412;1190;61231;-22
2021/09/19 01:20:47;;;;;;;0.80;0.60;;;;;;;10.84;80.40;97924.23;112380;1192;75205;-22
2021/09/19 01:23:36;;;;;;;2.20;0.80;;;;;;;11.39;79.44;97918.50;112467;1190;75764;-23
2021/09/19 01:26:07;;;;;;;1.10;0.80;;;;;;;11.83;77.33;97918.92;112429;1193;73839;-22
2021/09/19 01:28:35;;;;;;;2.10;1.20;;;;;;;11.82;76.96;97917.14;112464;1192;60821;-23
2021/09/19 01:31:16;;;;;;;2.50;0.90;;;;;;;11.55;77.00;97916.20;112517;1190;60867;-22
2021/09/19 01:34:03;;;;;;;2.10;0.80;;;;;;;11.28;78.27;97918.59;112547;1190;75048;-22
2021/09/19 01:36:51;;;;;;;1.10;0.50;;;;;;;11.08;79.24;97920.95;112484;1190;75788;-22
2021/09/19 01:39:20;;;;;;;2.60;1.00;;;;;;;11.56;78.75;97922.52;112556;1190;73197;-24
2021/09/19 01:41:49;;;;;;;1.90;0.80;;;;;;;11.93;76.09;97922.86;112454;1190;61987;-24
2021/09/19 01:44:17;;;;;;;1.10;0.80;;;;;;;11.90;75.89;97925.06;112612;1190;61451;-23
2021/09/19 01:46:45;;;;;;;2.40;0.90;;;;;;;11.48;76.21;97921.56;112429;1193;73224;-23
2021/09/19 01:49:14;;;;;;;5.50;1.40;;;;;;;11.13;77.36;97923.97;112531;1190;74965;-23
2021/09/19 01:51:47;;;;;;;2.30;1.30;;;;;;;10.80;78.84;97926.35;112519;1190;73416;-23
2021/09/19 01:54:16;;;;;;;4.20;0.60;;;;;;;10.61;79.87;97924.41;112516;1190;63244;-23
2021/09/19 01:56:51;;;;;;;3.30;1.00;;;;;;;11.11;78.57;97925.55;112486;1190;60811;-23
2021/09/19 01:59:20;;;;;;;1.30;0.90;;;;;;;11.55;76.76;97927.36;112543;1190;74483;-23
2021/09/19 02:01:50;;;;;;;6.20;0.90;;;;;;;11.53;76.81;97928.97;112523;1190;75799;-23
2021/09/19 02:04:40;;;;;;;1.90;0.80;;;;;;;11.28;77.07;97927.49;112403;1192;74446;-23
2021/09/19 02:07:08;;;;;;;2.10;1.20;;;;;;;10.82;77.80;97925.12;112400;1193;61843;-23
2021/09/19 02:09:37;;;;;;;2.80;1.10;;;;;;;10.39;79.73;97928.45;112525;1190;60808;-23
2021/09/19 02:12:06;;;;;;;1.20;0.60;;;;;;;10.15;80.62;97928.86;112505;1190;74913;-23
2021/09/19 02:14:35;;;;;;;3.30;1.10;;;;;;;10.65;79.44;97927.68;112391;1193;75659;-22
2021/09/19 02:17:03;;;;;;;1.40;0.70;;;;;;;11.12;77.25;97925.77;112473;1190;73870;-22
2021/09/19 02:19:51;;;;;;;2.10;1.10;;;;;;;11.13;76.82;97923.14;112375;1193;60870;-22
2021/09/19 02:22:20;;;;;;;2.10;1.10;;;;;;;10.87;77.66;97922.57;112532;1190;60800;-22
2021/09/19 02:24:52;;;;;;;4.80;1.00;;;;;;;10.61;78.55;97924.09;112458;1192;73879;-22
2021/09/19 02:27:20;;;;;;;1.90;0.70;;;;;;;10.39;79.62;97926.04;112518;1190;75677;-22
2021/09/19 02:30:00;;;;;;;2.80;0.70;;;;;;;10.86;78.85;97923.38;112514;1190;75313;-22
2021/09/19 02:32:28;;;;;;;2.80;1.00;;;;;;;11.33;76.97;97922.39;112412;1192;62727;-22
2021/09/19 02:34:56;;;;;;;2.10;0.80;;;;;;;11.31;76.58;97919.30;112483;1193;61381;-21
2021/09/19 02:37:27;;;;;;;1.90;1.00;;;;;;;11.08;76.87;97923.85;112516;1190;75332;-22
2021/09/19 02:39:55;;;;;;;2.90;1.30;;;;;;;10.72;78.20;97924.87;112553;1190;75364;-22
2021/09/19 02:42:23;;;;;;;1.50;0.90;;;;;;;10.46;79.10;97924.48;112534;1190;73064;-23
2021/09/19 02:45:11;;;;;;;1.50;0.80;;;;;;;10.25;79.82;97926.48;112483;1190;62507;-22
2021/09/19 02:47:40;;;;;;;1.20;0.70;;;;;;;10.84;78.54;97927.14;112478;1190;60841;-22
2021/09/19 02:50:09;;;;;;;3.40;1.00;;;;;;;11.39;76.28;97923.59;112532;1191;74330;-22
2021/09/19 02:52:39;;;;;;;3.70;1.10;;;;;;;11.40;75.80;97920.39;112374;1190;75501;-22
2021/09/19 02:55:09;;;;;;;1.20;0.70;;;;;;;11.15;75.93;97921.84;112474;1192;73609;-22
2021/09/19 02:57:37;;;;;;;2.70;1.00;;;;;;;10.85;76.76;97919.09;112543;1190;61468;-22
2021/09/19 03:00:09;;;;;;;1.20;0.80;;;;;;;10.56;77.96;97918.33;112533;1190;60758;-23
2021/09/19 03:02:37;;;;;;;1.70;0.70;;;;;;;10.36;78.70;97919.89;112411;1192;75390;-22
2021/09/19 03:05:07;;;;;;;1.40;0.80;;;;;;;10.85;77.91;97917.34;112475;1190;74579;-22
2021/09/19 03:07:36;;;;;;;2.70;0.90;;;;;;;11.23;75.14;97917.02;112198;1193;70355;-22
2021/09/19 03:10:06;;;;;;;3.50;0.80;;;;;;;11.19;75.22;97921.79;112236;1178;61419;-22
2021/09/19 03:12:34;;;;;;;1.60;0.70;;;;;;;10.97;75.97;97919.96;112226;1192;60818;-24
2021/09/19 03:15:04;;;;;;;2.10;0.70;;;;;;;10.79;76.95;97927.55;112483;1190;75200;-22
2021/09/19 03:17:32;;;;;;;3.80;0.80;;;;;;;10.52;77.81;97925.88;112340;1190;75796;-22
2021/09/19 03:20:09;;;;;;;0.60;0.50;;;;;;;10.27;78.87;97926.19;112512;1190;74042;-22
2021/09/19 03:22:37;;;;;;;1.60;0.60;;;;;;;10.70;78.13;97920.81;112463;1191;61427;-22
2021/09/19 03:25:13;;;;;;;0.80;0.70;;;;;;;11.18;76.32;97919.46;112503;1190;60809;-22
2021/09/19 03:27:42;;;;;;;1.70;0.80;;;;;;;11.14;76.40;97921.54;112501;1183;75726;-22
2021/09/19 03:30:13;;;;;;;2.00;0.80;;;;;;;10.87;77.00;97919.59;112230;1193;75644;-23
2021/09/19 03:32:45;;;;;;;2.30;0.50;;;;;;;10.52;77.91;97922.92;112226;1192;74013;-23
2021/09/19 03:35:13;;;;;;;1.40;0.90;;;;;;;10.26;78.97;97922.44;112518;1190;60838;-24
2021/09/19 03:37:41;;;;;;;0.60;0.40;;;;;;;10.08;79.56;97925.79;112449;1190;60815;-24
2021/09/19 03:40:11;;;;;;;1.40;0.50;;;;;;;10.51;78.80;97922.73;112306;1193;74401;-23
2021/09/19 03:42:39;;;;;;;1.70;0.70;;;;;;;10.98;76.34;97921.80;112563;1190;76294;-22
2021/09/19 03:45:10;;;;;;;1.80;0.50;;;;;;;10.94;75.61;97915.29;112501;1193;74028;-22
2021/09/19 03:47:39;;;;;;;0.40;0.40;;;;;;;10.73;76.63;97919.09;112510;1190;61932;-22
2021/09/19 03:50:07;;;;;;;1.20;0.40;;;;;;;10.47;77.25;97919.68;112476;1190;60754;-22
2021/09/19 03:52:37;;;;;;;1.00;0.50;;;;;;;10.27;77.98;97919.59;112372;1192;74158;-24
2021/09/19 03:55:06;;;;;;;1.50;0.40;;;;;;;10.11;78.25;97918.20;112468;1190;74895;-24
2021/09/19 03:57:34;;;;;;;1.30;0.60;;;;;;;10.51;77.73;97919.67;112430;1192;74045;-24
2021/09/19 04:00:09;;;;;;;1.40;0.50;;;;;;;11.06;75.80;97917.82;112506;1190;60818;-24
2021/09/19 04:02:40;;;;;;;0.60;0.40;;;;;;;11.10;75.64;97918.16;112429;1190;60805;-24
2021/09/19 04:05:10;;;;;;;0.60;0.40;;;;;;;10.89;75.94;97920.98;112435;1190;75222;-24
2021/09/19 04:07:38;;;;;;;2.10;0.40;;;;;;;10.60;76.41;97919.52;112467;1193;75841;-24
2021/09/19 04:10:08;;;;;;;4.00;0.60;;;;;;;10.32;77.14;97922.01;112491;1190;74367;-24
2021/09/19 04:12:38;;;;;;;0.30;0.30;;;;;;;10.12;78.03;97920.14;112352;1190;63390;-24
2021/09/19 04:15:08;;;;;;;2.40;0.60;;;;;;;10.59;77.85;97918.33;112331;1192;61822;-23
2021/09/19 04:17:56;;;;;;;0.90;0.50;;;;;;;11.14;76.17;97921.95;112258;1193;75732;-23
2021/09/19 04:20:28;;;;;;;3.40;0.50;;;;;;;11.10;75.86;97923.37;112537;1190;75611;-23
2021/09/19 04:23:16;;;;;;;1.10;0.50;;;;;;;10.78;76.29;97926.23;112485;1190;75310;-22
2021/09/19 04:25:45;;;;;;;0.70;0.40;;;;;;;10.46;76.90;97924.36;112485;1190;60844;-23
2021/09/19 04:28:22;;;;;;;0.60;0.50;;;;;;;10.16;77.52;97921.85;112499;1190;60764;-23
2021/09/19 04:30:51;;;;;;;1.30;0.50;;;;;;;9.97;78.69;97923.98;112503;1190;73615;-23
2021/09/19 04:33:39;;;;;;;0.70;0.40;;;;;;;10.50;78.62;97922.34;112520;1190;76882;-23
2021/09/19 04:36:08;;;;;;;0.90;0.70;;;;;;;10.98;76.76;97921.24;112498;1190;74072;-23
2021/09/19 04:38:37;;;;;;;0.50;0.50;;;;;;;10.98;76.40;97919.57;112527;1190;61283;-23
2021/09/19 04:41:06;;;;;;;0.80;0.50;;;;;;;10.66;76.75;97917.90;112516;1190;60790;-22
2021/09/19 04:43:34;;;;;;;0.80;0.60;;;;;;;10.37;77.59;97922.43;112502;1190;74004;-23
2021/09/19 04:46:02;;;;;;;0.60;0.50;;;;;;;10.14;78.04;97927.22;112440;1190;74456;-22
2021/09/19 04:48:31;;;;;;;3.30;0.50;;;;;;;9.92;78.87;97929.64;112504;1190;72305;-23
2021/09/19 04:50:59;;;;;;;1.00;0.70;;;;;;;10.31;78.32;97927.83;112449;1190;60799;-22
2021/09/19 04:53:27;;;;;;;0.70;0.60;;;;;;;10.74;76.86;97924.00;112457;1190;60830;-23
2021/09/19 04:55:56;;;;;;;0.80;0.50;;;;;;;10.77;76.44;97923.22;112443;1190;73621;-23
2021/09/19 04:58:24;;;;;;;1.60;0.80;;;;;;;10.58;77.01;97926.66;112411;1190;74752;-23
2021/09/19 05:00:53;;;;;;;0.50;0.50;;;;;;;10.30;78.16;97926.02;112501;1190;73729;-23
2021/09/19 05:03:22;;;;;;;0.70;0.40;;;;;;;10.08;78.77;97930.14;112560;1190;60818;-23
2021/09/19 05:05:51;;;;;;;1.40;0.50;;;;;;;9.86;79.68;97929.73;112518;1190;60873;-23
2021/09/19 05:08:21;;;;;;;0.30;0.30;;;;;;;10.30;78.77;97930.77;112437;1190;76551;-23
2021/09/19 05:10:52;;;;;;;1.70;0.70;;;;;;;10.82;76.64;97925.98;112502;1190;74627;-23
2021/09/19 05:14:04;;;;;;;1.10;0.70;;;;;;;10.81;76.70;97925.70;110579;1209;599634;-23
2021/09/19 05:16:52;;;;;;;1.20;0.60;;;;;;;10.56;77.09;97926.28;111920;1195;61786;-24
2021/09/19 05:19:41;;;;;;;1.20;0.60;;;;;;;10.26;78.04;97931.80;111949;1195;62059;-25
2021/09/19 05:22:27;;;;;;;0.60;0.40;;;;;;;10.10;78.71;97933.14;111887;1196;73751;-24
2021/09/19 05:24:57;;;;;;;1.50;0.40;;;;;;;10.72;77.95;97927.70;111990;1195;75729;-24
2021/09/19 05:27:25;;;;;;;1.20;0.60;;;;;;;11.31;76.35;97929.77;111613;1196;74138;-23
2021/09/19 05:29:54;;;;;;;0.70;0.50;;;;;;;11.29;75.84;97924.89;111965;1196;60829;-24
2021/09/19 05:32:22;;;;;;;1.00;0.50;;;;;;;11.06;76.81;97923.42;111881;1196;61618;-25
2021/09/19 05:34:51;;;;;;;0.70;0.60;;;;;;;10.82;76.63;97923.95;111695;1196;74125;-24
2021/09/19 05:37:20;;;;;;;1.70;0.60;;;;;;;10.51;77.87;97928.05;111745;1196;74695;-22
2021/09/19 05:39:48;;;;;;;0.30;0.30;;;;;;;10.19;79.11;97925.02;111971;1195;73428;-22
2021/09/19 05:42:16;;;;;;;0.40;0.40;;;;;;;10.75;78.27;97923.45;111951;1196;62266;-22
2021/09/19 05:44:45;;;;;;;0.50;0.50;;;;;;;11.24;76.72;97918.45;111979;1197;61527;-23
2021/09/19 05:47:13;;;;;;;4.20;0.70;;;;;;;11.30;75.60;97917.36;111932;1196;73413;-22
2021/09/19 05:49:41;;;;;;;0.80;0.50;;;;;;;10.97;76.90;97919.27;111937;1196;74429;-23
2021/09/19 05:52:26;;;;;;;1.00;0.80;;;;;;;10.68;77.54;97916.61;111935;1196;73033;-22
2021/09/19 05:54:55;;;;;;;0.50;0.50;;;;;;;10.45;78.22;97920.44;111807;1196;60861;-21
2021/09/19 05:57:23;;;;;;;0.40;0.30;;;;;;;10.26;78.45;97917.02;111950;1196;60923;-25
2021/09/19 05:59:52;;;;;;;0.50;0.40;;;;;;;10.65;77.92;97915.34;111914;1196;74600;-25
2021/09/19 06:02:20;;;;;;;0.50;0.50;;;;;;;11.17;75.82;97912.39;111680;1197;74989;-24
2021/09/19 06:04:51;;;;;;;0.60;0.50;;;;;;;11.07;75.63;97910.27;112011;1195;72369;-23
2021/09/19 06:07:19;;;;;;;5.60;2.60;;;;;;;10.78;75.49;97911.11;111882;1196;60799;-24
2021/09/19 06:09:48;;;;;;;2.10;1.10;;;;;;;10.47;76.31;97913.30;111914;1196;60883;-25
2021/09/19 06:12:16;;;;;;;5.50;0.90;;;;;;;10.22;77.71;97914.18;111940;1196;73383;-24
2021/09/19 06:15:07;;;;;;;0.70;0.50;;;;;;;10.10;78.73;97911.71;111891;1197;76044;-25
2021/09/19 06:17:36;;;;;;;0.50;0.40;;;;;;;10.72;77.34;97911.59;111686;1190;74171;-23
2021/09/19 06:20:06;;;;;;;0.30;0.30;;;;;;;11.24;75.68;97911.55;111806;1196;60805;-26
2021/09/19 06:22:54;;;;;;;0.40;0.40;;;;;;;11.20;75.11;97912.11;111668;1197;61795;-26
2021/09/19 06:25:22;;;;;;;0.50;0.50;;;;;;;10.90;76.09;97914.48;111812;1196;74501;-25
2021/09/19 06:27:53;;;;;;;0.80;0.50;;;;;;;10.52;77.09;97917.14;112120;1193;73961;-24
2021/09/19 06:30:21;;;;;;;5.40;0.70;;;;;;;10.21;78.50;97923.64;112264;1193;73342;-24
2021/09/19 06:32:51;;;;;;;0.80;0.40;;;;;;;9.77;79.11;97916.56;112097;1194;62180;-24
2021/09/19 06:35:30;;;;;;;0.60;0.30;;;;;;;9.61;78.39;97921.70;112364;1193;60839;-24
2021/09/19 06:37:58;;;;;;;0.60;0.60;;;;;;;9.64;77.70;97926.86;112383;1193;74444;-24
2021/09/19 06:40:46;;;;;;;1.50;0.40;;;;;;;9.47;78.84;97926.69;112350;1192;77031;-24
2021/09/19 06:43:15;;;;;;;0.80;0.40;;;;;;;9.11;80.32;97924.00;112409;1193;73204;-24
2021/09/19 06:45:43;;;;;;;0.20;0.20;;;;;;;8.69;81.22;97924.02;112395;1194;60792;-23
2021/09/19 06:48:12;;;;;;;0.40;0.30;;;;;;;8.61;81.72;97926.09;112358;1193;60876;-23
2021/09/19 06:50:41;;;;;;;0.20;0.10;;;;;;;8.87;80.88;97920.29;112182;1193;74134;-23
2021/09/19 06:53:09;;;;;;;0.30;0.20;;;;;;;8.84;81.02;97927.51;112269;1193;75488;-23
2021/09/19 06:55:38;;;;;;;0.40;0.20;;;;;;;8.62;80.81;97931.25;112354;1192;73465;-24
2021/09/19 06:58:07;;;;;;;0.20;0.20;;;;;;;8.17;81.93;97931.75;112404;1192;60833;-23
2021/09/19 07:00:36;;;;;;;0.20;0.20;;;;;;;8.27;82.39;97935.17;112115;1193;60865;-23
2021/09/19 07:03:04;;;;;;;0.20;0.20;;;;;;;8.72;81.46;97938.14;112330;1193;74484;-23
2021/09/19 07:05:33;;;;;;;1.30;0.20;;;;;;;8.64;81.19;97932.27;112290;1192;75392;-23
2021/09/19 07:08:02;;;;;;;2.90;0.30;;;;;;;8.35;81.42;97930.25;112307;1193;74121;-23
2021/09/19 07:10:50;;;;;;;0.60;0.20;;;;;;;7.95;82.41;97940.62;112140;1193;61605;-23
2021/09/19 07:13:24;;;;;;;0.90;0.30;;;;;;;7.85;83.16;97944.20;112344;1193;60915;-22
2021/09/19 07:16:12;;;;;;;0.40;0.10;;;;;;;8.26;81.88;97939.92;112347;1193;75516;-22
2021/09/19 07:18:44;;;;;;;0.70;0.20;;;;;;;8.53;81.34;97949.30;112189;1186;75476;-22
2021/09/19 07:21:32;;;;;;;0.30;0.20;;;;;;;8.38;81.20;97944.20;112328;1193;75095;-22
2021/09/19 07:24:00;;;;;;;0.20;0.20;;;;;;;8.11;82.32;97944.73;112310;1193;61782;-22
2021/09/19 07:26:31;;;;;;;0.20;0.10;;;;;;;8.06;83.11;97951.56;112370;1193;60963;-22
2021/09/19 07:29:00;;;;;;;0.50;0.30;;;;;;;8.57;81.11;97953.64;112119;1194;73441;-23
2021/09/19 07:31:28;;;;;;;0.50;0.30;;;;;;;8.82;79.14;97955.94;112435;1193;74654;-22
2021/09/19 07:33:57;;;;;;;0.20;0.20;;;;;;;8.65;79.23;97952.20;112157;1193;71250;-22
2021/09/19 07:36:27;;;;;;;0.10;0.10;;;;;;;8.47;80.32;97960.70;112379;1193;61666;-22
2021/09/19 07:38:57;;;;;;;0.20;0.10;;;;;;;8.29;81.29;97959.77;112122;1193;60815;-22
2021/09/19 07:41:26;;;;;;;0.20;0.20;;;;;;;8.15;82.36;97967.38;112116;1193;74558;-23
2021/09/19 07:43:57;;;;;;;0.50;0.20;;;;;;;8.54;80.90;97966.63;112136;1193;75669;-22
2021/09/19 07:46:26;;;;;;;0.40;0.20;;;;;;;8.84;78.74;97964.99;112091;1193;73035;-22
2021/09/19 07:48:57;;;;;;;0.20;0.20;;;;;;;8.76;78.72;97965.40;112075;1193;60840;-22
2021/09/19 07:51:27;;;;;;;2.40;0.20;;;;;;;8.52;79.79;97967.69;112381;1192;60860;-22
2021/09/19 07:53:56;;;;;;;2.00;0.30;;;;;;;8.31;80.55;97968.36;112128;1185;74369;-23
2021/09/19 07:56:24;;;;;;;0.10;0.10;;;;;;;8.16;81.73;97970.15;112440;1193;75903;-24
2021/09/19 07:58:53;;;;;;;0.20;0.20;;;;;;;8.70;80.61;97974.06;112391;1193;73979;-23
2021/09/19 08:01:21;;;;;;;0.10;0.10;;;;;;;9.08;78.60;97970.60;112365;1192;61757;-23
2021/09/19 08:03:50;;;;;;;0.20;0.20;;;;;;;9.08;78.09;97976.19;112389;1192;60738;-23
2021/09/19 08:06:22;;;;;;;0.20;0.20;;;;;;;8.74;78.45;97974.48;112147;1193;74550;-23
2021/09/19 08:08:53;;;;;;;0.20;0.20;;;;;;;8.50;78.67;97973.93;112170;1193;74715;-23
2021/09/19 08:11:22;;;;;;;0.40;0.40;;;;;;;8.30;80.04;97975.34;112434;1194;73680;-23
2021/09/19 08:13:55;;;;;;;0.40;0.20;;;;;;;8.71;79.08;97972.26;112428;1193;60905;-23
2021/09/19 08:16:23;;;;;;;0.20;0.20;;;;;;;9.12;77.32;97968.88;112397;1193;60834;-23
2021/09/19 08:18:54;;;;;;;0.40;0.30;;;;;;;9.20;77.43;97974.92;112441;1193;74083;-22
2021/09/19 08:21:23;;;;;;;1.00;0.20;;;;;;;9.02;77.85;97976.70;112200;1193;74720;-24
2021/09/19 08:23:51;;;;;;;0.20;0.20;;;;;;;8.87;78.79;97977.92;112162;1193;72967;-21
2021/09/19 08:26:19;;;;;;;0.20;0.20;;;;;;;8.79;79.76;97979.30;112406;1192;62134;-22
2021/09/19 08:28:50;;;;;;;0.20;0.20;;;;;;;9.19;77.65;97974.51;112218;1192;60815;-22
2021/09/19 08:31:18;;;;;;;0.90;0.40;;;;;;;9.48;77.33;97975.31;112450;1192;73530;-23
2021/09/19 08:33:47;;;;;;;0.70;0.30;;;;;;;9.44;76.27;97978.26;112436;1193;75587;-24
2021/09/19 08:36:18;;;;;;;0.30;0.30;;;;;;;9.28;77.04;97977.97;112391;1193;74165;-22
2021/09/19 08:38:47;;;;;;;0.30;0.30;;;;;;;9.09;77.73;97987.53;112398;1187;60748;-24
2021/09/19 08:41:17;;;;;;;0.80;0.40;;;;;;;8.99;78.76;97987.56;112428;1192;60799;-22
2021/09/19 08:43:48;;;;;;;0.40;0.30;;;;;;;9.45;78.06;97982.69;112445;1193;74615;-23
2021/09/19 08:46:18;;;;;;;2.70;0.40;;;;;;;9.90;76.12;97985.02;112499;1192;73388;-23
2021/09/19 08:48:48;;;;;;;0.30;0.30;;;;;;;9.96;75.81;97987.08;112084;1193;73390;-22
2021/09/19 08:51:18;;;;;;;0.70;0.30;;;;;;;9.60;76.35;97987.31;112198;1193;60867;-22
2021/09/19 08:53:47;;;;;;;0.40;0.30;;;;;;;9.51;76.31;97986.98;112396;1192;60824;-24
2021/09/19 08:56:26;;;;;;;2.80;0.40;;;;;;;9.16;77.77;97985.71;112356;1193;73580;-27
2021/09/19 08:58:55;;;;;;;0.30;0.20;;;;;;;9.34;78.38;97988.20;112081;1193;74366;-23
2021/09/19 09:01:24;;;;;;;2.10;0.30;;;;;;;9.99;76.13;97988.15;112517;1191;74688;-24
2021/09/19 09:04:03;;;;;;;0.90;0.40;;;;;;;10.21;74.61;97988.27;112546;1190;61832;-24
2021/09/19 09:06:37;;;;;;;2.20;0.40;;;;;;;10.00;75.69;97989.27;112469;1190;60851;-23
2021/09/19 09:09:15;;;;;;;0.50;0.50;;;;;;;9.90;75.61;97991.27;112436;1192;74504;-25
2021/09/19 09:11:59;;;;;;;0.80;0.30;;;;;;;9.67;76.07;97994.45;112407;1193;74852;-26
2021/09/19 09:14:28;;;;;;;0.40;0.30;;;;;;;9.55;76.67;97991.20;112259;1190;73989;-25
2021/09/19 09:17:17;;;;;;;0.10;0.10;;;;;;;10.20;74.33;97992.09;112424;1191;61389;-25
2021/09/19 09:19:50;;;;;;;0.20;0.20;;;;;;;10.72;71.28;97987.85;112299;1190;60862;-24
2021/09/19 09:22:36;;;;;;;0.20;0.20;;;;;;;10.79;71.69;97991.55;112526;1190;73686;-22
2021/09/19 09:25:09;;;;;;;0.40;0.30;;;;;;;10.69;72.63;97993.28;112516;1190;74800;-22
2021/09/19 09:27:41;;;;;;;0.20;0.20;;;;;;;10.30;73.25;97987.76;112418;1190;74432;-25
2021/09/19 09:30:26;;;;;;;0.10;0.10;;;;;;;10.04;73.98;97988.06;112244;1191;61455;-24
2021/09/19 09:32:54;;;;;;;0.20;0.20;;;;;;;10.03;74.91;97992.58;112443;1190;61649;-24
2021/09/19 09:35:33;;;;;;;0.20;0.20;;;;;;;10.53;73.14;97991.14;112578;1190;75199;-24
2021/09/19 09:38:16;;;;;;;0.30;0.30;;;;;;;10.64;71.43;97994.21;112460;1192;75560;-25
2021/09/19 09:40:45;;;;;;;1.40;0.30;;;;;;;10.44;71.73;97996.38;112486;1190;74232;-24
2021/09/19 09:43:14;;;;;;;1.40;0.20;;;;;;;10.07;72.60;97995.25;112530;1185;61733;-23
2021/09/19 09:45:44;;;;;;;0.20;0.20;;;;;;;9.68;72.90;97997.68;112509;1191;61358;-22
2021/09/19 09:48:24;;;;;;;1.00;0.10;;;;;;;9.51;73.76;98004.33;112425;1193;74193;-23
2021/09/19 09:50:53;;;;;;;0.20;0.20;;;;;;;9.32;74.24;98006.23;112476;1190;75774;-23
2021/09/19 09:53:22;;;;;;;0.20;0.20;;;;;;;9.83;73.31;98007.33;112155;1193;74111;-23
2021/09/19 09:55:52;;;;;;;0.20;0.20;;;;;;;10.29;72.70;98009.05;112483;1192;61539;-22
2021/09/19 09:58:22;;;;;;;0.20;0.20;;;;;;;10.37;72.67;98013.50;112457;1191;60859;-22
2021/09/19 10:00:53;;;;;;;0.10;0.10;;;;;;;10.08;71.89;98006.74;112541;1190;74227;-24
2021/09/19 10:03:21;;;;;;;0.20;0.20;;;;;;;9.81;73.89;98015.72;112456;1191;74011;-22
2021/09/19 10:05:50;;;;;;;1.20;0.20;;;;;;;9.57;74.02;98009.41;112483;1190;73146;-23
2021/09/19 10:08:21;;;;;;;0.40;0.20;;;;;;;9.56;74.90;98013.39;112458;1190;61805;-24
2021/09/19 10:11:12;;;;;;;0.10;0.10;;;;;;;9.90;74.76;98018.29;112445;1190;60815;-24
2021/09/19 10:13:45;;;;;;;0.10;0.10;;;;;;;9.76;73.99;98010.41;112447;1192;74222;-23
2021/09/19 10:16:34;;;;;;;0.10;0.10;;;;;;;9.47;75.03;98016.41;112404;1193;76750;-23
2021/09/19 10:19:02;;;;;;;0.10;0.10;;;;;;;9.14;76.61;98018.40;112495;1189;74033;-23
2021/09/19 10:21:51;;;;;;;0.20;0.20;;;;;;;8.85;77.65;98020.14;112521;1190;63789;-23
2021/09/19 10:24:20;;;;;;;0.20;0.20;;;;;;;9.31;77.05;98023.79;112475;1190;61777;-23
2021/09/19 10:26:56;;;;;;;0.20;0.20;;;;;;;9.54;76.18;98022.52;112535;1190;75763;-22
2021/09/19 10:29:42;;;;;;;0.20;0.20;;;;;;;9.51;75.98;98018.98;112254;1190;75647;-23
2021/09/19 10:32:31;;;;;;;0.30;0.30;;;;;;;9.37;76.21;98030.14;112236;1193;72610;-23
2021/09/19 10:35:01;;;;;;;0.50;0.20;;;;;;;9.16;76.88;98024.26;112447;1190;60732;-23
2021/09/19 10:37:55;;;;;;;0.20;0.10;;;;;;;9.19;77.50;98026.55;112549;1190;62337;-23
2021/09/19 10:40:38;;;;;;;0.20;0.20;;;;;;;9.76;74.90;98019.41;112544;1190;75182;-23
2021/09/19 10:43:16;;;;;;;0.30;0.20;;;;;;;10.08;74.60;98023.88;112511;1190;75846;-23
2021/09/19 10:45:45;;;;;;;0.40;0.20;;;;;;;9.96;75.14;98024.98;112409;1192;74015;-24
2021/09/19 10:48:18;;;;;;;1.60;0.20;;;;;;;9.75;74.84;98022.52;112467;1190;61883;-23
2021/09/19 10:50:47;;;;;;;0.20;0.20;;;;;;;9.61;75.44;98021.87;112270;1190;60839;-24
2021/09/19 10:53:46;;;;;;;0.30;0.20;;;;;;;9.53;74.67;98019.55;112467;1190;76721;-24
2021/09/19 10:56:34;;;;;;;0.20;0.20;;;;;;;10.06;73.73;98021.45;112281;1190;75809;-24
2021/09/19 10:59:04;;;;;;;0.20;0.20;;;;;;;10.28;72.97;98024.45;112419;1193;71243;-24
2021/09/19 11:01:36;;;;;;;0.50;0.30;;;;;;;10.14;73.38;98019.67;112534;1189;60836;-23
2021/09/19 11:04:06;;;;;;;0.90;0.30;;;;;;;10.14;73.36;98018.17;112519;1190;60821;-24
2021/09/19 11:06:35;;;;;;;0.20;0.20;;;;;;;10.04;73.82;98018.73;112546;1189;75029;-24
2021/09/19 11:09:22;;;;;;;0.30;0.20;;;;;;;10.04;74.16;98023.34;112548;1190;74693;-24
2021/09/19 11:12:05;;;;;;;0.30;0.20;;;;;;;10.56;71.82;98017.91;112468;1192;74067;-24
2021/09/19 11:15:02;;;;;;;0.10;0.10;;;;;;;10.95;70.00;98019.52;112444;1190;62996;-22
2021/09/19 11:17:31;;;;;;;0.20;0.20;;;;;;;10.79;69.71;98013.77;112462;1190;61552;-24
2021/09/19 11:20:21;;;;;;;2.10;0.30;;;;;;;10.65;70.34;98014.28;112443;1190;76018;-25
2021/09/19 11:22:56;;;;;;;1.40;0.30;;;;;;;10.47;71.70;98014.27;112285;1190;75596;-24
2021/09/19 11:25:26;;;;;;;0.20;0.20;;;;;;;10.28;71.02;98009.71;112258;1191;73759;-24
2021/09/19 11:28:14;;;;;;;0.10;0.10;;;;;;;10.22;72.39;98007.69;112477;1190;64694;-24
2021/09/19 11:31:03;;;;;;;0.20;0.20;;;;;;;11.00;70.91;98005.30;112515;1190;61794;-25
2021/09/19 11:33:32;;;;;;;0.50;0.20;;;;;;;11.38;69.28;98009.48;112291;1191;75760;-24
2021/09/19 11:36:05;;;;;;;0.40;0.20;;;;;;;11.38;69.25;98007.41;112546;1184;74186;-24
2021/09/19 11:38:47;;;;;;;0.10;0.10;;;;;;;11.11;70.18;98007.36;112220;1192;72648;-24
2021/09/19 11:41:16;;;;;;;0.30;0.20;;;;;;;10.91;69.43;98005.98;112467;1190;60882;-24
2021/09/19 11:43:50;;;;;;;0.20;0.20;;;;;;;10.56;69.37;97998.64;112450;1190;60901;-24
2021/09/19 11:46:19;;;;;;;0.20;0.20;;;;;;;10.42;70.99;98001.42;112468;1192;74002;-24
2021/09/19 11:48:48;;;;;;;0.30;0.20;;;;;;;10.33;71.45;98002.64;112413;1192;75795;-24
2021/09/19 11:51:18;;;;;;;1.00;0.20;;;;;;;10.85;70.44;98005.23;112540;1190;73146;-22
2021/09/19 11:53:55;;;;;;;0.50;0.20;;;;;;;11.23;68.57;97999.02;112556;1190;61768;-23